createdAt,value
2018-05-12T00:00:13.595Z,13.90
2018-05-12T00:02:14.546Z,13.80
2018-05-12T00:04:15.509Z,13.90
2018-05-12T00:06:16.503Z,13.80
2018-05-12T00:08:18.234Z,13.90
2018-05-12T00:10:19.203Z,13.80
2018-05-12T00:12:20.899Z,14.00
2018-05-12T00:14:21.835Z,13.90
2018-05-12T00:16:22.793Z,13.90
2018-05-12T00:18:23.749Z,13.90
2018-05-12T00:20:25.475Z,14.10
2018-05-12T00:22:26.429Z,14.10
2018-05-12T00:24:27.375Z,14.10
2018-05-12T00:26:28.337Z,14.20
2018-05-12T00:28:29.303Z,14.10
2018-05-12T00:30:30.274Z,14.00
2018-05-12T00:32:31.366Z,14.00
2018-05-12T00:34:32.320Z,14.10
2018-05-12T00:36:33.267Z,14.00
2018-05-12T00:38:34.247Z,14.00
2018-05-12T00:40:35.232Z,14.00
2018-05-12T00:42:36.930Z,14.00
2018-05-12T00:44:37.881Z,14.00
2018-05-12T00:46:38.849Z,14.10
2018-05-12T00:48:39.777Z,14.10
2018-05-12T00:50:40.733Z,14.10
2018-05-12T00:52:41.723Z,14.10
2018-05-12T00:54:43.409Z,14.20
2018-05-12T00:56:44.465Z,14.20
2018-05-12T00:58:45.419Z,14.20
2018-05-12T01:00:46.447Z,14.20
2018-05-12T01:02:47.415Z,14.20
2018-05-12T01:04:48.378Z,14.10
2018-05-12T01:06:49.330Z,14.10
2018-05-12T01:08:50.280Z,14.10
2018-05-12T01:10:51.215Z,14.10
2018-05-12T01:12:52.153Z,14.10
2018-05-12T01:14:53.126Z,14.10
2018-05-12T01:16:54.083Z,14.20
2018-05-12T01:18:55.063Z,14.10
2018-05-12T01:20:56.039Z,14.20
2018-05-12T01:22:57.013Z,14.20
2018-05-12T01:24:57.962Z,14.20
2018-05-12T01:26:58.906Z,14.20
2018-05-12T01:28:59.840Z,14.20
2018-05-12T01:31:00.823Z,14.20
2018-05-12T01:33:02.527Z,14.20
2018-05-12T01:35:03.466Z,14.20
2018-05-12T01:37:04.455Z,14.20
2018-05-12T01:39:05.390Z,14.30
2018-05-12T01:41:06.341Z,14.30
2018-05-12T01:43:07.308Z,14.30
2018-05-12T01:45:09.035Z,14.20
2018-05-12T01:47:09.993Z,14.20
2018-05-12T01:49:10.959Z,14.20
2018-05-12T01:51:12.680Z,14.10
2018-05-12T01:53:13.642Z,14.10
2018-05-12T01:55:14.645Z,14.10
2018-05-12T01:57:15.674Z,14.10
2018-05-12T01:59:16.585Z,14.10
2018-05-12T02:01:17.541Z,14.10
2018-05-12T02:03:18.487Z,14.10
2018-05-12T02:05:19.439Z,14.10
2018-05-12T02:07:20.372Z,14.20
2018-05-12T02:09:21.359Z,14.20
2018-05-12T02:11:22.326Z,14.20
2018-05-12T02:13:23.269Z,14.20
2018-05-12T02:15:24.216Z,14.20
2018-05-12T02:17:25.189Z,14.20
2018-05-12T02:19:26.156Z,14.20
2018-05-12T02:21:27.102Z,14.10
2018-05-12T02:23:28.038Z,14.10
2018-05-12T02:25:28.991Z,14.10
2018-05-12T02:27:29.954Z,14.10
2018-05-12T02:29:31.661Z,14.00
2018-05-12T02:31:32.598Z,14.00
2018-05-12T02:33:33.555Z,14.10
2018-05-12T02:35:34.551Z,14.00
2018-05-12T02:37:36.239Z,14.00
2018-05-12T02:39:37.229Z,14.00
2018-05-12T02:41:38.145Z,14.00
2018-05-12T02:43:39.106Z,14.00
2018-05-12T02:45:40.067Z,14.00
2018-05-12T02:47:41.027Z,14.00
2018-05-12T02:49:41.958Z,14.00
2018-05-12T02:51:42.908Z,14.10
2018-05-12T02:53:43.867Z,14.00
2018-05-12T02:55:44.839Z,14.10
2018-05-12T02:57:45.782Z,14.10
2018-05-12T02:59:46.751Z,14.10
2018-05-12T03:01:47.699Z,14.10
2018-05-12T03:03:48.634Z,14.10
2018-05-12T03:05:49.582Z,14.10
2018-05-12T03:07:50.548Z,14.10
2018-05-12T03:09:51.501Z,14.10
2018-05-12T03:11:52.475Z,14.00
2018-05-12T03:13:53.418Z,14.00
2018-05-12T03:15:54.362Z,14.10
2018-05-12T03:17:55.319Z,14.00
2018-05-12T03:19:57.026Z,14.10
2018-05-12T03:21:57.962Z,14.00
2018-05-12T03:23:58.910Z,14.00
2018-05-12T03:25:59.899Z,14.00
2018-05-12T03:28:00.832Z,14.00
2018-05-12T03:30:01.792Z,14.00
2018-05-12T03:32:02.753Z,14.00
2018-05-12T03:34:03.712Z,14.00
2018-05-12T03:36:05.424Z,14.00
2018-05-12T03:38:06.371Z,14.00
2018-05-12T03:40:07.306Z,14.10
2018-05-12T03:42:08.699Z,14.00
2018-05-12T03:44:09.647Z,14.00
2018-05-12T03:46:10.626Z,14.00
2018-05-12T03:48:12.331Z,14.10
2018-05-12T03:50:13.285Z,14.00
2018-05-12T03:52:14.253Z,14.10
2018-05-12T03:54:15.198Z,14.10
2018-05-12T03:56:17.118Z,14.10
2018-05-12T03:58:18.037Z,14.10
2018-05-12T04:00:19.707Z,14.10
2018-05-12T04:02:20.693Z,14.10
2018-05-12T04:04:34.064Z,14.20
2018-05-12T04:06:47.433Z,14.20
2018-05-12T04:09:00.786Z,14.20
2018-05-12T04:11:14.134Z,14.20
2018-05-12T04:13:15.080Z,14.20
2018-05-12T04:15:16.026Z,14.20
2018-05-12T04:17:16.967Z,14.20
2018-05-12T04:19:17.894Z,14.20
2018-05-12T04:21:18.820Z,14.20
2018-05-12T04:23:20.487Z,14.20
2018-05-12T04:25:22.183Z,14.20
2018-05-12T04:27:23.118Z,14.20
2018-05-12T04:29:24.054Z,14.30
2018-05-12T04:31:25.748Z,14.30
2018-05-12T04:33:26.682Z,14.30
2018-05-12T04:35:27.619Z,14.30
2018-05-12T04:37:28.575Z,14.30
2018-05-12T04:39:29.515Z,14.40
2018-05-12T04:41:30.462Z,14.40
2018-05-12T04:43:31.398Z,14.40
2018-05-12T04:45:32.348Z,14.40
2018-05-12T04:47:33.289Z,14.40
2018-05-12T04:49:34.242Z,14.40
2018-05-12T04:51:35.187Z,14.40
2018-05-12T04:53:36.874Z,14.50
2018-05-12T04:55:37.833Z,14.40
2018-05-12T04:57:38.782Z,14.50
2018-05-12T04:59:39.731Z,14.50
2018-05-12T05:01:40.678Z,14.40
2018-05-12T05:03:41.618Z,14.50
2018-05-12T05:05:42.533Z,14.50
2018-05-12T05:07:43.483Z,14.50
2018-05-12T05:09:44.417Z,14.50
2018-05-12T05:11:45.356Z,14.40
2018-05-12T05:13:46.292Z,14.50
2018-05-12T05:15:47.236Z,14.50
2018-05-12T05:17:48.182Z,14.50
2018-05-12T05:19:49.146Z,14.50
2018-05-12T05:21:50.086Z,14.50
2018-05-12T05:23:51.038Z,14.50
2018-05-12T05:25:52.001Z,14.50
2018-05-12T05:27:52.938Z,14.50
2018-05-12T05:29:53.890Z,14.60
2018-05-12T05:31:54.827Z,14.60
2018-05-12T05:33:55.748Z,14.50
2018-05-12T05:35:56.678Z,14.50
2018-05-12T05:37:58.355Z,14.60
2018-05-12T05:39:59.299Z,14.60
2018-05-12T05:42:00.278Z,14.50
2018-05-12T05:44:01.217Z,14.60
2018-05-12T05:46:02.160Z,14.60
2018-05-12T05:48:03.130Z,14.60
2018-05-12T05:50:04.064Z,14.60
2018-05-12T05:52:04.985Z,14.60
2018-05-12T05:54:05.921Z,14.60
2018-05-12T05:56:06.869Z,14.60
2018-05-12T05:58:07.810Z,14.50
2018-05-12T06:00:08.759Z,14.50
2018-05-12T06:02:09.691Z,14.60
2018-05-12T06:04:10.647Z,14.50
2018-05-12T06:06:11.567Z,14.60
2018-05-12T06:08:13.266Z,14.60
2018-05-12T06:10:14.216Z,14.60
2018-05-12T06:12:15.141Z,14.60
2018-05-12T06:14:16.079Z,14.50
2018-05-12T06:16:17.746Z,14.60
2018-05-12T06:18:18.681Z,14.60
2018-05-12T06:20:20.357Z,14.60
2018-05-12T06:22:21.302Z,14.50
2018-05-12T06:24:22.253Z,14.60
2018-05-12T06:26:23.203Z,14.60
2018-05-12T06:28:24.137Z,14.60
2018-05-12T06:30:25.074Z,14.60
2018-05-12T06:32:26.762Z,14.70
2018-05-12T06:34:27.705Z,14.70
2018-05-12T06:36:28.644Z,14.70
2018-05-12T06:38:29.566Z,14.70
2018-05-12T06:40:30.634Z,14.80
2018-05-12T06:42:31.606Z,14.80
2018-05-12T06:44:32.671Z,14.80
2018-05-12T06:46:33.602Z,14.80
2018-05-12T06:48:34.543Z,14.80
2018-05-12T06:50:35.457Z,14.80
2018-05-12T06:52:37.151Z,15.00
2018-05-12T06:54:38.089Z,15.00
2018-05-12T06:56:39.027Z,15.10
2018-05-12T06:58:39.962Z,15.20
2018-05-12T07:00:40.889Z,15.40
2018-05-12T07:02:42.577Z,16.20
2018-05-12T07:04:43.537Z,16.20
2018-05-12T07:06:44.476Z,16.80
2018-05-12T07:08:45.437Z,16.90
2018-05-12T07:10:47.315Z,17.60
2018-05-12T07:12:48.257Z,17.90
2018-05-12T07:14:49.175Z,18.60
2018-05-12T07:16:50.103Z,19.30
2018-05-12T07:18:51.775Z,19.40
2018-05-12T07:20:52.750Z,19.30
2018-05-12T07:22:53.693Z,19.40
2018-05-12T07:24:54.629Z,19.60
2018-05-12T07:26:56.302Z,20.40
2018-05-12T07:28:57.263Z,20.40
2018-05-12T07:30:58.201Z,19.80
2018-05-12T07:32:59.199Z,20.30
2018-05-12T07:35:00.155Z,20.70
2018-05-12T07:37:01.086Z,19.90
2018-05-12T07:39:02.806Z,19.60
2018-05-12T07:41:03.754Z,19.60
2018-05-12T07:43:04.705Z,19.70
2018-05-12T07:45:05.660Z,18.80
2018-05-12T07:47:06.609Z,19.10
2018-05-12T07:49:07.554Z,19.20
2018-05-12T07:51:08.542Z,19.30
2018-05-12T07:53:09.491Z,19.30
2018-05-12T07:55:10.498Z,19.40
2018-05-12T07:57:11.429Z,19.20
2018-05-12T07:59:12.390Z,19.20
2018-05-12T08:01:13.339Z,19.20
2018-05-12T08:03:15.034Z,19.40
2018-05-12T08:05:15.994Z,19.40
2018-05-12T08:07:16.978Z,19.50
2018-05-12T08:09:17.917Z,19.50
2018-05-12T08:11:18.884Z,19.40
2018-05-12T08:13:20.574Z,19.80
2018-05-12T08:15:21.522Z,19.80
2018-05-12T08:17:22.469Z,19.30
2018-05-12T08:19:23.402Z,19.40
2018-05-12T08:21:25.098Z,19.40
2018-05-12T08:23:26.062Z,19.40
2018-05-12T08:25:27.097Z,19.20
2018-05-12T08:27:28.048Z,19.60
2018-05-12T08:29:29.034Z,20.40
2018-05-12T08:31:30.069Z,20.60
2018-05-12T08:33:31.662Z,20.10
2018-05-12T08:35:33.321Z,20.50
2018-05-12T08:37:35.020Z,20.50
2018-05-12T08:39:35.960Z,20.50
2018-05-12T08:41:36.889Z,20.40
2018-05-12T08:43:37.840Z,20.30
2018-05-12T08:45:38.886Z,20.30
2018-05-12T08:47:39.826Z,20.50
2018-05-12T08:49:40.807Z,20.80
2018-05-12T08:51:41.769Z,21.60
2018-05-12T08:53:42.749Z,21.00
2018-05-12T08:55:44.434Z,21.00
2018-05-12T08:57:45.369Z,21.00
2018-05-12T08:59:46.329Z,20.70
2018-05-12T09:01:47.331Z,20.20
2018-05-12T09:03:48.277Z,19.80
2018-05-12T09:05:49.253Z,20.40
2018-05-12T09:07:50.226Z,20.90
2018-05-12T09:09:51.146Z,21.10
2018-05-12T09:11:52.097Z,20.60
2018-05-12T09:13:53.046Z,20.80
2018-05-12T09:15:53.998Z,20.80
2018-05-12T09:17:54.954Z,20.70
2018-05-12T09:19:55.951Z,20.80
2018-05-12T09:21:56.972Z,20.90
2018-05-12T09:23:58.586Z,20.70
2018-05-12T09:25:59.547Z,20.70
2018-05-12T09:28:00.550Z,20.90
2018-05-12T09:30:01.527Z,20.70
2018-05-12T09:32:02.475Z,20.90
2018-05-12T09:34:03.457Z,20.90
2018-05-12T09:36:04.402Z,20.80
2018-05-12T09:38:05.346Z,21.10
2018-05-12T09:40:06.298Z,21.30
2018-05-12T09:42:07.267Z,21.80
2018-05-12T09:44:08.199Z,22.70
2018-05-12T09:46:09.122Z,22.20
2018-05-12T09:48:10.045Z,21.10
2018-05-12T09:50:11.013Z,21.40
2018-05-12T09:52:11.983Z,21.40
2018-05-12T09:54:12.938Z,21.60
2018-05-12T09:56:13.921Z,22.20
2018-05-12T09:58:14.953Z,22.10
2018-05-12T10:00:15.907Z,22.50
2018-05-12T10:02:17.608Z,22.60
2018-05-12T10:04:18.583Z,22.60
2018-05-12T10:06:19.538Z,22.80
2018-05-12T10:08:20.543Z,22.60
2018-05-12T10:10:21.506Z,22.50
2018-05-12T10:12:22.508Z,23.10
2018-05-12T10:14:23.467Z,23.40
2018-05-12T10:16:24.414Z,22.90
2018-05-12T10:18:25.353Z,22.60
2018-05-12T10:20:26.317Z,23.20
2018-05-12T10:22:27.378Z,23.10
2018-05-12T10:24:28.345Z,22.00
2018-05-12T10:26:29.366Z,22.70
2018-05-12T10:28:30.318Z,22.70
2018-05-12T10:30:31.265Z,22.70
2018-05-12T10:32:32.226Z,22.70
2018-05-12T10:34:33.211Z,22.30
2018-05-12T10:36:34.159Z,23.10
2018-05-12T10:38:35.085Z,23.40
2018-05-12T10:40:36.790Z,23.60
2018-05-12T10:42:37.739Z,23.60
2018-05-12T10:44:38.679Z,23.60
2018-05-12T10:46:39.621Z,23.90
2018-05-12T10:48:41.324Z,23.60
2018-05-12T10:50:42.262Z,23.60
2018-05-12T10:52:43.239Z,23.50
2018-05-12T10:54:45.086Z,23.10
2018-05-12T10:56:46.681Z,23.10
2018-05-12T10:58:47.627Z,23.10
2018-05-12T11:00:49.313Z,23.90
2018-05-12T11:02:50.274Z,23.90
2018-05-12T11:04:51.225Z,24.40
2018-05-12T11:06:52.159Z,24.80
2018-05-12T11:08:53.095Z,25.20
2018-05-12T11:10:54.034Z,25.40
2018-05-12T11:12:54.984Z,24.80
2018-05-12T11:14:55.930Z,25.80
2018-05-12T11:16:56.883Z,25.60
2018-05-12T11:18:57.849Z,25.30
2018-05-12T11:20:58.798Z,25.70
2018-05-12T11:22:59.729Z,25.60
2018-05-12T11:25:00.714Z,25.50
2018-05-12T11:27:01.646Z,25.20
2018-05-12T11:29:02.654Z,24.20
2018-05-12T11:31:03.589Z,24.50
2018-05-12T11:33:04.554Z,25.10
2018-05-12T11:35:05.500Z,25.10
2018-05-12T11:37:06.455Z,25.10
2018-05-12T11:39:07.402Z,25.00
2018-05-12T11:41:08.350Z,25.30
2018-05-12T11:43:09.290Z,25.20
2018-05-12T11:45:10.239Z,25.10
2018-05-12T11:47:11.188Z,24.70
2018-05-12T11:49:12.145Z,24.90
2018-05-12T11:51:13.102Z,24.50
2018-05-12T11:53:14.050Z,24.40
2018-05-12T11:55:15.011Z,24.00
2018-05-12T11:57:16.694Z,23.60
2018-05-12T11:59:17.657Z,23.60
2018-05-12T12:01:18.605Z,23.70
2018-05-12T12:03:19.563Z,23.30
2018-05-12T12:05:20.567Z,23.80
2018-05-12T12:07:22.348Z,22.80
2018-05-12T12:09:23.315Z,22.80
2018-05-12T12:11:24.986Z,23.50
2018-05-12T12:13:25.927Z,23.50
2018-05-12T12:15:26.869Z,23.80
2018-05-12T12:17:28.557Z,24.30
2018-05-12T12:19:29.511Z,24.30
2018-05-12T12:21:30.439Z,24.40
2018-05-12T12:23:31.383Z,24.40
2018-05-12T12:25:32.341Z,25.20
2018-05-12T12:27:33.291Z,25.70
2018-05-12T12:29:34.273Z,26.20
2018-05-12T12:31:35.954Z,26.00
2018-05-12T12:33:36.899Z,26.00
2018-05-12T12:35:38.623Z,25.80
2018-05-12T12:37:40.305Z,24.60
2018-05-12T12:39:41.984Z,24.90
2018-05-12T12:41:42.959Z,24.90
2018-05-12T12:43:43.919Z,24.70
2018-05-12T12:45:44.863Z,25.10
2018-05-12T12:47:45.832Z,25.50
2018-05-12T12:49:46.770Z,25.60
2018-05-12T12:51:47.777Z,26.00
2018-05-12T12:53:48.682Z,24.90
2018-05-12T12:55:50.371Z,26.00
2018-05-12T12:57:51.298Z,26.00
2018-05-12T12:59:52.987Z,25.60
2018-05-12T13:01:53.940Z,25.60
2018-05-12T13:03:54.910Z,25.70
2018-05-12T13:05:55.846Z,26.20
2018-05-12T13:07:56.785Z,26.00
2018-05-12T13:09:57.730Z,26.30
2018-05-12T13:11:58.696Z,26.30
2018-05-12T13:13:59.640Z,25.90
2018-05-12T13:16:00.606Z,25.70
2018-05-12T13:18:01.525Z,25.50
2018-05-12T13:20:02.505Z,25.50
2018-05-12T13:22:04.199Z,25.90
2018-05-12T13:24:05.147Z,25.80
2018-05-12T13:26:06.089Z,25.50
2018-05-12T13:28:07.024Z,26.40
2018-05-12T13:30:07.967Z,26.60
2018-05-12T13:32:08.926Z,26.50
2018-05-12T13:34:09.874Z,26.10
2018-05-12T13:36:10.811Z,26.70
2018-05-12T13:38:11.736Z,26.10
2018-05-12T13:40:12.690Z,25.80
2018-05-12T13:42:14.376Z,26.70
2018-05-12T13:44:15.313Z,26.70
2018-05-12T13:46:16.250Z,26.30
2018-05-12T13:48:17.173Z,25.70
2018-05-12T13:50:18.851Z,25.10
2018-05-12T13:52:20.538Z,25.60
2018-05-12T13:54:21.483Z,25.50
2018-05-12T13:56:22.431Z,25.10
2018-05-12T13:58:23.397Z,24.90
2018-05-12T14:00:24.349Z,25.40
2018-05-12T14:02:25.328Z,25.70
2018-05-12T14:04:26.270Z,25.50
2018-05-12T14:06:27.223Z,25.60
2018-05-12T14:08:28.903Z,25.70
2018-05-12T14:10:29.854Z,25.70
2018-05-12T14:12:30.793Z,25.20
2018-05-12T14:14:32.469Z,25.10
2018-05-12T14:16:33.429Z,25.10
2018-05-12T14:18:34.389Z,25.40
2018-05-12T14:20:35.366Z,25.50
2018-05-12T14:22:36.316Z,25.40
2018-05-12T14:24:37.245Z,25.60
2018-05-12T14:26:38.188Z,25.70
2018-05-12T14:28:39.115Z,25.70
2018-05-12T14:30:40.079Z,25.30
2018-05-12T14:32:41.022Z,25.60
2018-05-12T14:34:41.991Z,25.40
2018-05-12T14:36:42.941Z,25.20
2018-05-12T14:38:44.642Z,25.40
2018-05-12T14:40:45.622Z,25.40
2018-05-12T14:42:46.763Z,25.50
2018-05-12T14:44:47.653Z,25.20
2018-05-12T14:46:49.342Z,25.00
2018-05-12T14:48:50.286Z,24.90
2018-05-12T14:50:51.962Z,25.10
2018-05-12T14:52:52.901Z,25.10
2018-05-12T14:54:53.854Z,25.10
2018-05-12T14:56:54.814Z,24.80
2018-05-12T14:58:55.762Z,24.80
2018-05-12T15:00:56.689Z,24.50
2018-05-12T15:02:57.634Z,24.40
2018-05-12T15:04:58.613Z,24.30
2018-05-12T15:06:59.557Z,24.30
2018-05-12T15:09:00.541Z,24.40
2018-05-12T15:11:02.232Z,24.70
2018-05-12T15:13:03.200Z,24.70
2018-05-12T15:15:04.148Z,24.80
2018-05-12T15:17:05.099Z,24.30
2018-05-12T15:19:06.046Z,24.40
2018-05-12T15:21:06.999Z,24.40
2018-05-12T15:23:07.938Z,24.50
2018-05-12T15:25:08.887Z,24.60
2018-05-12T15:27:09.847Z,24.60
2018-05-12T15:29:10.787Z,24.70
2018-05-12T15:31:11.787Z,24.40
2018-05-12T15:33:12.733Z,24.40
2018-05-12T15:35:13.687Z,24.50
2018-05-12T15:37:14.639Z,24.60
2018-05-12T15:39:15.582Z,24.70
2018-05-12T15:41:16.522Z,24.70
2018-05-12T15:43:17.476Z,24.60
2018-05-12T15:45:18.471Z,24.10
2018-05-12T15:47:20.203Z,24.10
2018-05-12T15:49:21.138Z,24.10
2018-05-12T15:51:22.099Z,23.60
2018-05-12T15:53:23.041Z,23.80
2018-05-12T15:55:24.108Z,23.70
2018-05-12T15:57:25.084Z,24.10
2018-05-12T15:59:25.988Z,24.00
2018-05-12T16:01:26.963Z,24.20
2018-05-12T16:03:28.679Z,23.80
2018-05-12T16:05:29.631Z,23.80
2018-05-12T16:07:30.624Z,23.70
2018-05-12T16:09:32.323Z,23.40
2018-05-12T16:11:33.260Z,23.30
2018-05-12T16:13:34.236Z,23.40
2018-05-12T16:15:35.212Z,23.30
2018-05-12T16:17:36.166Z,23.30
2018-05-12T16:19:37.163Z,23.20
2018-05-12T16:21:38.171Z,23.20
2018-05-12T16:23:39.140Z,23.40
2018-05-12T16:25:40.116Z,23.30
2018-05-12T16:27:41.058Z,23.20
2018-05-12T16:29:42.059Z,23.20
2018-05-12T16:31:43.021Z,23.00
2018-05-12T16:33:43.962Z,23.20
2018-05-12T16:35:44.933Z,23.10
2018-05-12T16:37:45.925Z,23.10
2018-05-12T16:39:47.619Z,23.00
2018-05-12T16:41:48.582Z,23.00
2018-05-12T16:43:49.551Z,22.70
2018-05-12T16:45:50.512Z,22.70
2018-05-12T16:47:51.495Z,22.50
2018-05-12T16:49:52.456Z,22.60
2018-05-12T16:51:53.443Z,22.60
2018-05-12T16:53:54.425Z,22.50
2018-05-12T16:55:55.421Z,22.60
2018-05-12T16:57:56.444Z,22.70
2018-05-12T16:59:57.402Z,22.50
2018-05-12T17:01:58.434Z,22.60
2018-05-12T17:03:59.365Z,22.50
2018-05-12T17:06:00.359Z,22.50
2018-05-12T17:08:01.330Z,22.40
2018-05-12T17:10:02.306Z,22.50
2018-05-12T17:12:03.270Z,22.50
2018-05-12T17:14:04.221Z,22.40
2018-05-12T17:16:05.300Z,22.40
2018-05-12T17:18:06.246Z,22.40
2018-05-12T17:20:07.200Z,22.40
2018-05-12T17:22:08.142Z,22.50
2018-05-12T17:24:09.121Z,22.60
2018-05-12T17:26:10.889Z,22.60
2018-05-12T17:28:11.902Z,22.60
2018-05-12T17:30:12.858Z,22.50
2018-05-12T17:32:13.835Z,22.50
2018-05-12T17:34:14.772Z,22.30
2018-05-12T17:36:15.780Z,22.40
2018-05-12T17:38:17.491Z,22.30
2018-05-12T17:40:18.454Z,22.30
2018-05-12T17:42:19.412Z,22.20
2018-05-12T17:44:20.441Z,22.10
2018-05-12T17:46:21.334Z,22.10
2018-05-12T17:48:22.280Z,21.90
2018-05-12T17:50:23.268Z,21.80
2018-05-12T17:52:24.207Z,21.80
2018-05-12T17:54:25.177Z,21.70
2018-05-12T17:56:26.170Z,21.70
2018-05-12T17:58:27.160Z,21.60
2018-05-12T18:00:28.202Z,21.60
2018-05-12T18:02:29.186Z,21.50
2018-05-12T18:04:30.131Z,21.50
2018-05-12T18:06:31.128Z,21.30
2018-05-12T18:08:32.119Z,21.30
2018-05-12T18:10:33.106Z,21.30
2018-05-12T18:12:34.074Z,21.20
2018-05-12T18:14:35.018Z,21.10
2018-05-12T18:16:35.978Z,21.10
2018-05-12T18:18:36.941Z,21.10
2018-05-12T18:20:37.975Z,21.00
2018-05-12T18:22:38.957Z,20.90
2018-05-12T18:24:39.926Z,20.90
2018-05-12T18:26:40.885Z,20.80
2018-05-12T18:28:42.615Z,20.70
2018-05-12T18:30:43.614Z,20.70
2018-05-12T18:32:44.568Z,20.60
2018-05-12T18:34:45.573Z,20.60
2018-05-12T18:36:46.514Z,20.50
2018-05-12T18:38:47.499Z,20.50
2018-05-12T18:40:48.456Z,20.50
2018-05-12T18:42:49.410Z,20.40
2018-05-12T18:44:50.370Z,20.40
2018-05-12T18:46:51.360Z,20.40
2018-05-12T18:48:53.059Z,20.30
2018-05-12T18:50:54.151Z,20.30
2018-05-12T18:52:55.101Z,20.20
2018-05-12T18:54:56.084Z,20.20
2018-05-12T18:56:57.074Z,20.10
2018-05-12T18:58:58.039Z,20.10
2018-05-12T19:00:59.010Z,20.10
2018-05-12T19:02:59.972Z,20.00
2018-05-12T19:05:00.951Z,20.00
2018-05-12T19:07:01.907Z,20.00
2018-05-12T19:09:02.878Z,19.90
2018-05-12T19:11:03.834Z,19.90
2018-05-12T19:13:05.539Z,19.80
2018-05-12T19:15:06.493Z,19.80
2018-05-12T19:17:07.493Z,19.80
2018-05-12T19:19:08.462Z,19.70
2018-05-12T19:21:09.413Z,19.70
2018-05-12T19:23:11.113Z,19.60
2018-05-12T19:25:12.048Z,19.60
2018-05-12T19:27:13.054Z,19.60
2018-05-12T19:29:14.013Z,19.50
2018-05-12T19:31:14.991Z,19.50
2018-05-12T19:33:15.949Z,19.40
2018-05-12T19:35:16.893Z,19.40
2018-05-12T19:37:17.896Z,19.30
2018-05-12T19:39:18.936Z,19.30
2018-05-12T19:41:19.810Z,19.30
2018-05-12T19:43:20.799Z,19.20
2018-05-12T19:45:21.757Z,19.10
2018-05-12T19:47:22.726Z,19.10
2018-05-12T19:49:23.662Z,19.10
2018-05-12T19:51:24.602Z,19.00
2018-05-12T19:53:25.587Z,19.00
2018-05-12T19:55:26.563Z,18.90
2018-05-12T19:57:27.530Z,18.90
2018-05-12T19:59:29.210Z,18.80
2018-05-12T20:01:30.162Z,18.80
2018-05-12T20:03:31.105Z,18.80
2018-05-12T20:05:32.033Z,18.80
2018-05-12T20:07:32.977Z,18.70
2018-05-12T20:09:33.922Z,18.60
2018-05-12T20:11:35.655Z,18.60
2018-05-12T20:13:36.615Z,18.60
2018-05-12T20:15:37.549Z,18.60
2018-05-12T20:17:38.486Z,18.60
2018-05-12T20:19:39.438Z,18.50
2018-05-12T20:21:40.390Z,18.50
2018-05-12T20:23:41.327Z,18.50
2018-05-12T20:25:42.346Z,18.50
2018-05-12T20:27:43.214Z,18.40
2018-05-12T20:29:44.166Z,18.40
2018-05-12T20:31:45.133Z,18.40
2018-05-12T20:33:46.834Z,18.30
2018-05-12T20:35:47.803Z,18.30
2018-05-12T20:37:48.771Z,18.30
2018-05-12T20:39:49.733Z,18.40
2018-05-12T20:41:51.456Z,18.30
2018-05-12T20:43:52.417Z,18.30
2018-05-12T20:45:53.389Z,18.30
2018-05-12T20:47:55.077Z,18.30
2018-05-12T20:49:56.014Z,18.30
2018-05-12T20:51:57.709Z,18.30
2018-05-12T20:53:58.679Z,18.20
2018-05-12T20:55:59.634Z,18.30
2018-05-12T20:58:00.619Z,18.20
2018-05-12T21:00:02.315Z,18.20
2018-05-12T21:02:03.336Z,18.20
2018-05-12T21:04:04.308Z,18.20
2018-05-12T21:06:05.230Z,18.20
2018-05-12T21:08:06.193Z,18.20
2018-05-12T21:10:07.187Z,18.20
2018-05-12T21:12:08.903Z,18.20
2018-05-12T21:14:09.964Z,18.20
2018-05-12T21:16:10.880Z,18.20
2018-05-12T21:18:11.842Z,18.20
2018-05-12T21:20:12.816Z,18.20
2018-05-12T21:22:13.762Z,18.10
2018-05-12T21:24:14.743Z,18.00
2018-05-12T21:26:15.710Z,18.00
2018-05-12T21:28:16.715Z,18.00
2018-05-12T21:30:17.646Z,17.90
2018-05-12T21:32:18.610Z,17.90
2018-05-12T21:34:19.557Z,17.90
2018-05-12T21:36:20.550Z,17.80
2018-05-12T21:38:21.514Z,17.80
2018-05-12T21:40:22.458Z,17.70
2018-05-12T21:42:23.432Z,17.70
2018-05-12T21:44:24.379Z,17.70
2018-05-12T21:46:25.313Z,17.70
2018-05-12T21:48:26.281Z,17.70
2018-05-12T21:50:27.216Z,17.60
2018-05-12T21:52:28.184Z,17.60
2018-05-12T21:54:29.157Z,17.60
2018-05-12T21:56:30.121Z,17.50
2018-05-12T21:58:31.099Z,17.50
2018-05-12T22:00:32.056Z,17.50
2018-05-12T22:02:33.031Z,17.50
2018-05-12T22:04:33.982Z,17.40
2018-05-12T22:06:34.923Z,17.40
2018-05-12T22:08:35.881Z,17.50
2018-05-12T22:10:36.853Z,17.40
2018-05-12T22:12:37.840Z,17.40
2018-05-12T22:14:38.790Z,17.40
2018-05-12T22:16:39.727Z,17.40
2018-05-12T22:18:41.475Z,17.40
2018-05-12T22:20:42.364Z,17.40
2018-05-12T22:22:43.336Z,17.40
2018-05-12T22:24:44.286Z,17.40
2018-05-12T22:26:45.267Z,17.30
2018-05-12T22:28:46.221Z,17.30
2018-05-12T22:30:47.950Z,17.30
2018-05-12T22:32:48.920Z,17.30
2018-05-12T22:34:49.855Z,17.30
2018-05-12T22:36:50.801Z,17.30
2018-05-12T22:38:51.778Z,17.20
2018-05-12T22:40:53.474Z,17.20
2018-05-12T22:42:54.456Z,17.20
2018-05-12T22:44:55.395Z,17.20
2018-05-12T22:46:56.362Z,17.10
2018-05-12T22:48:57.312Z,17.10
2018-05-12T22:50:58.978Z,17.00
2018-05-12T22:53:00.695Z,17.00
2018-05-12T22:55:01.680Z,17.00
2018-05-12T22:57:02.643Z,17.00
2018-05-12T22:59:04.363Z,16.90
2018-05-12T23:01:05.333Z,16.90
2018-05-12T23:03:06.331Z,16.90
2018-05-12T23:05:07.308Z,16.90
2018-05-12T23:07:08.257Z,16.90
2018-05-12T23:09:09.231Z,16.90
2018-05-12T23:11:10.938Z,16.80
2018-05-12T23:13:12.654Z,16.80
2018-05-12T23:15:14.324Z,16.80
2018-05-12T23:17:16.014Z,16.80
2018-05-12T23:19:16.994Z,16.80
2018-05-12T23:21:17.929Z,16.80
2018-05-12T23:23:18.885Z,16.80
2018-05-12T23:25:19.832Z,16.80
2018-05-12T23:27:20.792Z,16.80
2018-05-12T23:29:21.738Z,16.80
2018-05-12T23:31:22.717Z,16.80
2018-05-12T23:33:23.678Z,16.80
2018-05-12T23:35:24.622Z,16.80
2018-05-12T23:37:25.577Z,16.80
2018-05-12T23:39:26.534Z,16.80
2018-05-12T23:41:27.480Z,16.70
2018-05-12T23:43:28.503Z,16.70
2018-05-12T23:45:29.446Z,16.70
2018-05-12T23:47:30.382Z,16.70
2018-05-12T23:49:32.118Z,16.70
2018-05-12T23:51:33.124Z,16.70
2018-05-12T23:53:34.800Z,16.70
2018-05-12T23:55:35.752Z,16.70
2018-05-12T23:57:36.918Z,16.70
2018-05-12T23:59:37.867Z,16.70
